Airfield :
LOGIN :

Register | Disclaimer

   EN    FR    IT 

 










Legend :    VFR   Marginal VFR   IFR   Intensive IFR   Very Intensive IFR
Visi :
Ceiling :
>= 8 km
>= 3000ft
5 to 8 km
1000 to 3000 ft
1500m to 5 km
500 to 1000 ft
800 to 1500m
200 to 500 ft
< 800m
< 200 ft
Symbols :   Thunderstorms  Fog  Heavy snow  Heavy precipitations  Wind > 20 kt
SIGMETs :     Misc.  Thunderstorms  Icing  Turbulence  Mountain Waves  Volcanic Ashes






- Airport Elevation : 144 ft
- IATA code : PGF


LFMP - Perpignan

CURRENT METAR :
  • 250330Z AUTO 30019KT 9999 -RA OVC072 14/10 Q1014 TEMPO SHRA FEW050TCU BECMG 30020G30KT

EXPIRED METARs :
  • 250300Z AUTO 30016KT 9999 -RA OVC076 13/10 Q1014 TEMPO SHRA FEW050TCU BECMG 30020G30KT
  • 250230Z AUTO 30017KT 9999 -RA OVC072 14/10 Q1013
  • 250200Z AUTO 30019KT 9999 -RA BKN076 OVC086 14/09 Q1013
  • 250130Z AUTO 30019KT 9999 -RA BKN078 OVC088 14/10 Q1013
  • 250100Z AUTO 30020KT 9999 -RA BKN078 OVC092 14/10 Q1013

TAF TAF LFMP
Valid from the 25 at 03:00 until the 26 at 03:00 UTC


250200Z 2503/2603 30020G30KT 9999 OVC070
TEMPO 2503/2509 SHRA FEW050TCU
BECMG 2509/2511 30023G40KT
TEMPO 2515/2603 SHRA FEW060TCU
ATIS : +33 4 68 63 75 12



MET'MAP, your aeronautical weather chart ! - Copyright ORBIFLY December 2007 - Disclaimer

ORBIFLY MET'MAP TEAM :

Programming & Development : Alexandra Zaïnal
Original concept : Baudouin d'Aumeries
Technical & hardware support : Manuel Goepfert
Assistance : Marc-Olivier Méhu

Contact : metmap@orbifly.com




SOURCES & CREDITS :

   NOAA